sensor_id;sensor_type;location;lat;lon;timestamp;temperature;humidity
21849;DHT22;11089;49.852;19.700;2023-12-04T00:02:00;-3.90;1.00
21849;DHT22;11089;49.852;19.700;2023-12-04T00:05:01;-3.90;1.00
21849;DHT22;11089;49.852;19.700;2023-12-04T00:08:01;-3.90;1.00
21849;DHT22;11089;49.852;19.700;2023-12-04T00:11:03;-3.90;1.00
21849;DHT22;11089;49.852;19.700;2023-12-04T00:14:04;-3.90;1.00
21849;DHT22;11089;49.852;19.700;2023-12-04T00:17:05;-3.80;1.00
21849;DHT22;11089;49.852;19.700;2023-12-04T00:20:09;-3.80;1.00
21849;DHT22;11089;49.852;19.700;2023-12-04T00:23:10;-3.70;1.00
21849;DHT22;11089;49.852;19.700;2023-12-04T00:26:12;-3.70;1.00
21849;DHT22;11089;49.852;19.700;2023-12-04T00:29:13;-3.70;1.00
21849;DHT22;11089;49.852;19.700;2023-12-04T00:32:14;-3.70;1.00
21849;DHT22;11089;49.852;19.700;2023-12-04T00:35:14;-3.70;1.00
21849;DHT22;11089;49.852;19.700;2023-12-04T00:38:15;-3.70;1.00
21849;DHT22;11089;49.852;19.700;2023-12-04T00:41:16;-3.70;1.00
21849;DHT22;11089;49.852;19.700;2023-12-04T00:44:17;-3.70;29.90
21849;DHT22;11089;49.852;19.700;2023-12-04T00:47:17;-3.60;1.00
21849;DHT22;11089;49.852;19.700;2023-12-04T00:50:18;-3.60;1.00
21849;DHT22;11089;49.852;19.700;2023-12-04T00:53:19;-3.60;1.00
21849;DHT22;11089;49.852;19.700;2023-12-04T00:56:20;-3.60;99.90
21849;DHT22;11089;49.852;19.700;2023-12-04T00:59:21;-3.60;99.90
21849;DHT22;11089;49.852;19.700;2023-12-04T01:02:22;-3.60;99.90
21849;DHT22;11089;49.852;19.700;2023-12-04T01:05:22;-3.60;99.90
21849;DHT22;11089;49.852;19.700;2023-12-04T01:08:23;-3.60;99.90
21849;DHT22;11089;49.852;19.700;2023-12-04T01:11:24;-3.50;99.90
21849;DHT22;11089;49.852;19.700;2023-12-04T01:14:25;-3.50;99.90
21849;DHT22;11089;49.852;19.700;2023-12-04T01:17:26;-3.50;99.90
21849;DHT22;11089;49.852;19.700;2023-12-04T01:20:26;-3.50;99.90
21849;DHT22;11089;49.852;19.700;2023-12-04T01:23:27;-3.50;99.90
21849;DHT22;11089;49.852;19.700;2023-12-04T01:26:28;-3.50;99.90
21849;DHT22;11089;49.852;19.700;2023-12-04T01:29:30;-3.50;99.90
21849;DHT22;11089;49.852;19.700;2023-12-04T01:32:32;-3.50;99.90
21849;DHT22;11089;49.852;19.700;2023-12-04T01:35:33;-3.50;99.90
21849;DHT22;11089;49.852;19.700;2023-12-04T01:38:33;-3.50;99.90
21849;DHT22;11089;49.852;19.700;2023-12-04T01:41:34;-3.50;8.80
21849;DHT22;11089;49.852;19.700;2023-12-04T01:44:35;-3.50;99.90
21849;DHT22;11089;49.852;19.700;2023-12-04T01:47:36;-3.50;86.60
21849;DHT22;11089;49.852;19.700;2023-12-04T01:50:38;-3.50;49.60
21849;DHT22;11089;49.852;19.700;2023-12-04T01:53:40;-3.50;44.60
21849;DHT22;11089;49.852;19.700;2023-12-04T01:56:42;-3.50;65.20
21849;DHT22;11089;49.852;19.700;2023-12-04T01:59:45;-3.50;99.90
21849;DHT22;11089;49.852;19.700;2023-12-04T02:02:46;-3.60;99.90
21849;DHT22;11089;49.852;19.700;2023-12-04T02:05:47;-3.60;99.90
21849;DHT22;11089;49.852;19.700;2023-12-04T02:08:48;-3.70;99.90
21849;DHT22;11089;49.852;19.700;2023-12-04T02:11:49;-3.70;99.90
21849;DHT22;11089;49.852;19.700;2023-12-04T02:14:51;-3.60;1.00
21849;DHT22;11089;49.852;19.700;2023-12-04T02:17:52;-3.60;99.90
21849;DHT22;11089;49.852;19.700;2023-12-04T02:20:53;-3.50;99.90
21849;DHT22;11089;49.852;19.700;2023-12-04T02:23:54;-3.50;99.90
21849;DHT22;11089;49.852;19.700;2023-12-04T02:27:14;-3.60;99.90
21849;DHT22;11089;49.852;19.700;2023-12-04T02:30:19;-3.60;99.90
21849;DHT22;11089;49.852;19.700;2023-12-04T02:33:23;-3.50;99.90
21849;DHT22;11089;49.852;19.700;2023-12-04T02:36:26;-3.60;99.90
21849;DHT22;11089;49.852;19.700;2023-12-04T02:39:28;-3.60;99.90
21849;DHT22;11089;49.852;19.700;2023-12-04T02:42:29;-3.60;99.90
21849;DHT22;11089;49.852;19.700;2023-12-04T02:45:29;-3.60;99.90
21849;DHT22;11089;49.852;19.700;2023-12-04T02:48:30;-3.60;99.90
21849;DHT22;11089;49.852;19.700;2023-12-04T02:51:31;-3.60;99.90
21849;DHT22;11089;49.852;19.700;2023-12-04T02:54:32;-3.70;99.90
21849;DHT22;11089;49.852;19.700;2023-12-04T02:57:32;-3.70;99.90
21849;DHT22;11089;49.852;19.700;2023-12-04T03:00:33;-3.70;99.90
21849;DHT22;11089;49.852;19.700;2023-12-04T03:03:34;-3.70;99.90
21849;DHT22;11089;49.852;19.700;2023-12-04T03:06:35;-3.70;99.90
21849;DHT22;11089;49.852;19.700;2023-12-04T03:09:35;-3.70;99.90
21849;DHT22;11089;49.852;19.700;2023-12-04T03:12:36;-3.80;99.90
21849;DHT22;11089;49.852;19.700;2023-12-04T03:15:37;-3.80;99.90
21849;DHT22;11089;49.852;19.700;2023-12-04T03:18:38;-3.80;99.90
21849;DHT22;11089;49.852;19.700;2023-12-04T03:21:39;-3.80;1.00
21849;DHT22;11089;49.852;19.700;2023-12-04T03:24:40;-3.90;99.90
21849;DHT22;11089;49.852;19.700;2023-12-04T03:27:41;-3.90;99.90
21849;DHT22;11089;49.852;19.700;2023-12-04T03:30:42;-3.90;99.90
21849;DHT22;11089;49.852;19.700;2023-12-04T03:33:46;-4.00;99.90
21849;DHT22;11089;49.852;19.700;2023-12-04T03:36:46;-4.00;99.90
21849;DHT22;11089;49.852;19.700;2023-12-04T03:39:47;-4.10;1.00
21849;DHT22;11089;49.852;19.700;2023-12-04T03:42:48;-4.10;1.00
21849;DHT22;11089;49.852;19.700;2023-12-04T03:45:48;-4.20;1.00
21849;DHT22;11089;49.852;19.700;2023-12-04T03:48:49;-4.10;1.00
21849;DHT22;11089;49.852;19.700;2023-12-04T03:51:50;-4.20;1.00
21849;DHT22;11089;49.852;19.700;2023-12-04T03:54:51;-4.20;1.00
21849;DHT22;11089;49.852;19.700;2023-12-04T03:57:53;-4.20;1.00
21849;DHT22;11089;49.852;19.700;2023-12-04T04:00:54;-4.20;1.00
21849;DHT22;11089;49.852;19.700;2023-12-04T04:03:54;-4.20;1.00
21849;DHT22;11089;49.852;19.700;2023-12-04T04:06:55;-4.20;1.00
21849;DHT22;11089;49.852;19.700;2023-12-04T04:09:56;-4.30;1.00
21849;DHT22;11089;49.852;19.700;2023-12-04T04:12:57;-4.40;1.00
21849;DHT22;11089;49.852;19.700;2023-12-04T04:15:58;-4.40;1.00
21849;DHT22;11089;49.852;19.700;2023-12-04T04:18:58;-4.40;1.00
21849;DHT22;11089;49.852;19.700;2023-12-04T04:21:59;-4.40;1.00
21849;DHT22;11089;49.852;19.700;2023-12-04T04:25:00;-4.40;1.00
21849;DHT22;11089;49.852;19.700;2023-12-04T04:28:02;-4.40;1.00
21849;DHT22;11089;49.852;19.700;2023-12-04T04:31:03;-4.40;1.00
21849;DHT22;11089;49.852;19.700;2023-12-04T04:34:04;-4.30;1.00
21849;DHT22;11089;49.852;19.700;2023-12-04T04:37:04;-4.20;1.00
21849;DHT22;11089;49.852;19.700;2023-12-04T04:40:06;-4.10;1.00
21849;DHT22;11089;49.852;19.700;2023-12-04T04:43:07;-4.10;1.00
21849;DHT22;11089;49.852;19.700;2023-12-04T04:46:08;-4.20;1.00
21849;DHT22;11089;49.852;19.700;2023-12-04T04:49:09;-4.20;1.00
21849;DHT22;11089;49.852;19.700;2023-12-04T04:52:10;-4.30;1.00
21849;DHT22;11089;49.852;19.700;2023-12-04T04:55:11;-4.30;1.00
21849;DHT22;11089;49.852;19.700;2023-12-04T04:58:12;-4.30;1.00
21849;DHT22;11089;49.852;19.700;2023-12-04T05:01:13;-4.50;99.90
21849;DHT22;11089;49.852;19.700;2023-12-04T05:04:15;-4.50;1.00
21849;DHT22;11089;49.852;19.700;2023-12-04T05:07:16;-4.50;1.00
21849;DHT22;11089;49.852;19.700;2023-12-04T05:10:16;-4.50;1.00
21849;DHT22;11089;49.852;19.700;2023-12-04T05:13:18;-4.60;1.00
21849;DHT22;11089;49.852;19.700;2023-12-04T05:16:18;-4.50;1.00
21849;DHT22;11089;49.852;19.700;2023-12-04T05:19:19;-4.40;1.00
21849;DHT22;11089;49.852;19.700;2023-12-04T05:22:20;-4.40;1.00
21849;DHT22;11089;49.852;19.700;2023-12-04T05:25:21;-4.40;99.90
21849;DHT22;11089;49.852;19.700;2023-12-04T05:28:22;-4.40;99.90
21849;DHT22;11089;49.852;19.700;2023-12-04T05:31:23;-4.40;99.90
21849;DHT22;11089;49.852;19.700;2023-12-04T05:34:24;-4.40;99.90
21849;DHT22;11089;49.852;19.700;2023-12-04T05:37:25;-4.30;99.90
21849;DHT22;11089;49.852;19.700;2023-12-04T05:40:25;-4.30;99.90
21849;DHT22;11089;49.852;19.700;2023-12-04T05:43:26;-4.20;99.90
21849;DHT22;11089;49.852;19.700;2023-12-04T05:46:27;-4.20;99.90
21849;DHT22;11089;49.852;19.700;2023-12-04T05:49:28;-4.20;99.90
21849;DHT22;11089;49.852;19.700;2023-12-04T05:52:29;-4.20;99.90
21849;DHT22;11089;49.852;19.700;2023-12-04T05:55:30;-4.20;99.90
21849;DHT22;11089;49.852;19.700;2023-12-04T05:58:31;-4.20;99.90
21849;DHT22;11089;49.852;19.700;2023-12-04T06:01:32;-4.10;99.90
21849;DHT22;11089;49.852;19.700;2023-12-04T06:04:33;-4.00;99.90
21849;DHT22;11089;49.852;19.700;2023-12-04T06:07:34;-4.00;99.90
21849;DHT22;11089;49.852;19.700;2023-12-04T06:10:35;-4.00;99.90
21849;DHT22;11089;49.852;19.700;2023-12-04T06:13:36;-4.10;99.90
21849;DHT22;11089;49.852;19.700;2023-12-04T06:16:37;-4.20;99.90
21849;DHT22;11089;49.852;19.700;2023-12-04T06:19:38;-4.20;99.90
21849;DHT22;11089;49.852;19.700;2023-12-04T06:22:39;-4.20;99.90
21849;DHT22;11089;49.852;19.700;2023-12-04T06:25:40;-4.20;1.00
21849;DHT22;11089;49.852;19.700;2023-12-04T06:28:41;-4.10;99.90
21849;DHT22;11089;49.852;19.700;2023-12-04T06:31:42;-4.20;1.00
21849;DHT22;11089;49.852;19.700;2023-12-04T06:34:43;-4.20;1.00
21849;DHT22;11089;49.852;19.700;2023-12-04T06:37:45;-4.10;99.90
21849;DHT22;11089;49.852;19.700;2023-12-04T06:40:47;-4.00;99.90
21849;DHT22;11089;49.852;19.700;2023-12-04T06:43:48;-4.00;99.90
21849;DHT22;11089;49.852;19.700;2023-12-04T06:46:49;-3.90;99.90
21849;DHT22;11089;49.852;19.700;2023-12-04T06:49:52;-3.90;99.90
21849;DHT22;11089;49.852;19.700;2023-12-04T06:52:53;-3.80;99.90
21849;DHT22;11089;49.852;19.700;2023-12-04T06:55:53;-3.90;1.00
21849;DHT22;11089;49.852;19.700;2023-12-04T06:58:54;-4.00;1.00
21849;DHT22;11089;49.852;19.700;2023-12-04T07:01:55;-4.10;1.00
21849;DHT22;11089;49.852;19.700;2023-12-04T07:04:56;-4.20;1.00
21849;DHT22;11089;49.852;19.700;2023-12-04T07:07:57;-4.20;1.00
21849;DHT22;11089;49.852;19.700;2023-12-04T07:10:57;-4.10;99.90
21849;DHT22;11089;49.852;19.700;2023-12-04T07:13:59;-4.10;88.10
21849;DHT22;11089;49.852;19.700;2023-12-04T07:17:00;-4.10;1.00
21849;DHT22;11089;49.852;19.700;2023-12-04T07:20:01;-3.90;1.00
21849;DHT22;11089;49.852;19.700;2023-12-04T07:23:02;-3.80;1.00
21849;DHT22;11089;49.852;19.700;2023-12-04T07:26:03;-3.80;1.00
21849;DHT22;11089;49.852;19.700;2023-12-04T07:29:04;-3.70;1.00
21849;DHT22;11089;49.852;19.700;2023-12-04T07:32:05;-3.60;1.00
21849;DHT22;11089;49.852;19.700;2023-12-04T07:35:07;-3.60;1.00
21849;DHT22;11089;49.852;19.700;2023-12-04T07:38:07;-3.50;1.00
21849;DHT22;11089;49.852;19.700;2023-12-04T07:41:08;-3.50;1.00
21849;DHT22;11089;49.852;19.700;2023-12-04T07:44:09;-3.50;1.00
21849;DHT22;11089;49.852;19.700;2023-12-04T07:47:10;-3.60;1.00
21849;DHT22;11089;49.852;19.700;2023-12-04T07:50:11;-3.60;1.00
21849;DHT22;11089;49.852;19.700;2023-12-04T07:53:12;-3.60;1.00
21849;DHT22;11089;49.852;19.700;2023-12-04T07:56:14;-3.70;1.00
21849;DHT22;11089;49.852;19.700;2023-12-04T07:59:15;-3.70;1.00
21849;DHT22;11089;49.852;19.700;2023-12-04T08:02:16;-3.70;1.00
21849;DHT22;11089;49.852;19.700;2023-12-04T08:05:16;-3.80;1.00
21849;DHT22;11089;49.852;19.700;2023-12-04T08:08:18;-3.90;1.00
21849;DHT22;11089;49.852;19.700;2023-12-04T08:11:19;-3.90;1.00
21849;DHT22;11089;49.852;19.700;2023-12-04T08:14:19;-3.90;1.00
21849;DHT22;11089;49.852;19.700;2023-12-04T08:17:20;-3.90;1.00
21849;DHT22;11089;49.852;19.700;2023-12-04T08:20:21;-4.10;1.00
21849;DHT22;11089;49.852;19.700;2023-12-04T08:23:23;-4.10;1.00
21849;DHT22;11089;49.852;19.700;2023-12-04T08:26:25;-4.10;1.00
21849;DHT22;11089;49.852;19.700;2023-12-04T08:29:26;-4.20;1.00
21849;DHT22;11089;49.852;19.700;2023-12-04T08:32:26;-3.90;1.00
21849;DHT22;11089;49.852;19.700;2023-12-04T08:35:28;-3.50;1.00
21849;DHT22;11089;49.852;19.700;2023-12-04T08:38:28;-3.00;1.00
21849;DHT22;11089;49.852;19.700;2023-12-04T08:41:29;-2.60;1.00
21849;DHT22;11089;49.852;19.700;2023-12-04T08:44:30;-2.40;1.00
21849;DHT22;11089;49.852;19.700;2023-12-04T08:47:31;-2.10;1.00
21849;DHT22;11089;49.852;19.700;2023-12-04T08:50:32;-1.90;99.90
21849;DHT22;11089;49.852;19.700;2023-12-04T08:53:33;-1.80;54.60
21849;DHT22;11089;49.852;19.700;2023-12-04T08:56:34;-1.80;1.00
21849;DHT22;11089;49.852;19.700;2023-12-04T08:59:35;-1.60;1.00
21849;DHT22;11089;49.852;19.700;2023-12-04T09:02:36;-1.40;1.00
21849;DHT22;11089;49.852;19.700;2023-12-04T09:05:37;-1.00;1.00
21849;DHT22;11089;49.852;19.700;2023-12-04T09:08:38;-0.40;1.00
21849;DHT22;11089;49.852;19.700;2023-12-04T09:11:42;0.20;1.00
21849;DHT22;11089;49.852;19.700;2023-12-04T09:14:43;0.80;1.00
21849;DHT22;11089;49.852;19.700;2023-12-04T09:17:44;1.10;1.00
21849;DHT22;11089;49.852;19.700;2023-12-04T09:20:45;1.60;1.00
21849;DHT22;11089;49.852;19.700;2023-12-04T09:23:46;1.80;1.00
21849;DHT22;11089;49.852;19.700;2023-12-04T09:26:50;2.10;1.00
21849;DHT22;11089;49.852;19.700;2023-12-04T09:29:51;2.20;1.00
21849;DHT22;11089;49.852;19.700;2023-12-04T09:32:51;2.50;1.00
21849;DHT22;11089;49.852;19.700;2023-12-04T09:35:52;2.70;1.00
21849;DHT22;11089;49.852;19.700;2023-12-04T09:38:53;2.50;1.00
21849;DHT22;11089;49.852;19.700;2023-12-04T09:41:55;2.50;1.00
21849;DHT22;11089;49.852;19.700;2023-12-04T09:44:56;2.20;1.00
21849;DHT22;11089;49.852;19.700;2023-12-04T09:47:59;1.90;1.00
21849;DHT22;11089;49.852;19.700;2023-12-04T09:51:00;2.20;1.00
21849;DHT22;11089;49.852;19.700;2023-12-04T09:54:02;2.50;1.00
21849;DHT22;11089;49.852;19.700;2023-12-04T09:57:06;2.40;1.00
21849;DHT22;11089;49.852;19.700;2023-12-04T10:00:08;2.50;1.00
21849;DHT22;11089;49.852;19.700;2023-12-04T10:03:10;2.60;1.00
21849;DHT22;11089;49.852;19.700;2023-12-04T10:06:15;2.50;1.00
21849;DHT22;11089;49.852;19.700;2023-12-04T10:09:19;2.50;1.00
21849;DHT22;11089;49.852;19.700;2023-12-04T10:12:23;2.60;1.00
21849;DHT22;11089;49.852;19.700;2023-12-04T10:15:23;2.40;1.00
21849;DHT22;11089;49.852;19.700;2023-12-04T10:18:28;2.50;1.00
21849;DHT22;11089;49.852;19.700;2023-12-04T10:21:32;2.40;1.00
21849;DHT22;11089;49.852;19.700;2023-12-04T10:24:38;2.20;1.00
21849;DHT22;11089;49.852;19.700;2023-12-04T10:27:39;2.20;1.00
21849;DHT22;11089;49.852;19.700;2023-12-04T10:30:39;2.10;1.00
21849;DHT22;11089;49.852;19.700;2023-12-04T10:33:41;1.90;1.00
21849;DHT22;11089;49.852;19.700;2023-12-04T10:36:41;2.30;1.00
21849;DHT22;11089;49.852;19.700;2023-12-04T10:39:50;2.20;1.00
21849;DHT22;11089;49.852;19.700;2023-12-04T10:42:51;2.60;1.00
21849;DHT22;11089;49.852;19.700;2023-12-04T10:45:52;2.80;1.00
21849;DHT22;11089;49.852;19.700;2023-12-04T10:48:55;2.30;1.00
21849;DHT22;11089;49.852;19.700;2023-12-04T10:51:57;2.30;1.00
21849;DHT22;11089;49.852;19.700;2023-12-04T10:55:00;2.40;1.00
21849;DHT22;11089;49.852;19.700;2023-12-04T10:58:05;2.40;1.00
21849;DHT22;11089;49.852;19.700;2023-12-04T11:01:07;2.40;1.00
21849;DHT22;11089;49.852;19.700;2023-12-04T11:04:13;2.40;1.00
21849;DHT22;11089;49.852;19.700;2023-12-04T11:07:19;2.50;1.00
21849;DHT22;11089;49.852;19.700;2023-12-04T11:10:22;2.70;1.00
21849;DHT22;11089;49.852;19.700;2023-12-04T11:13:32;2.60;1.00
21849;DHT22;11089;49.852;19.700;2023-12-04T11:17:02;2.50;1.00
21849;DHT22;11089;49.852;19.700;2023-12-04T11:20:08;2.40;1.00
21849;DHT22;11089;49.852;19.700;2023-12-04T11:23:13;2.70;1.00
21849;DHT22;11089;49.852;19.700;2023-12-04T11:26:16;3.00;1.00
21849;DHT22;11089;49.852;19.700;2023-12-04T11:29:18;2.60;1.00
21849;DHT22;11089;49.852;19.700;2023-12-04T11:32:24;2.40;1.00
21849;DHT22;11089;49.852;19.700;2023-12-04T11:35:28;2.10;1.00
21849;DHT22;11089;49.852;19.700;2023-12-04T11:38:30;2.40;1.00
21849;DHT22;11089;49.852;19.700;2023-12-04T11:41:31;1.90;1.00
21849;DHT22;11089;49.852;19.700;2023-12-04T11:44:32;1.80;1.00
21849;DHT22;11089;49.852;19.700;2023-12-04T11:47:59;2.00;1.00
21849;DHT22;11089;49.852;19.700;2023-12-04T11:51:00;1.90;1.00
21849;DHT22;11089;49.852;19.700;2023-12-04T11:54:01;1.90;1.00
21849;DHT22;11089;49.852;19.700;2023-12-04T12:00:10;2.20;1.00
21849;DHT22;11089;49.852;19.700;2023-12-04T12:03:14;2.60;1.00
21849;DHT22;11089;49.852;19.700;2023-12-04T12:06:15;2.60;1.00
21849;DHT22;11089;49.852;19.700;2023-12-04T12:09:17;2.50;1.00
21849;DHT22;11089;49.852;19.700;2023-12-04T12:12:18;2.60;1.00
21849;DHT22;11089;49.852;19.700;2023-12-04T12:15:19;2.60;1.00
21849;DHT22;11089;49.852;19.700;2023-12-04T12:18:21;2.90;1.00
21849;DHT22;11089;49.852;19.700;2023-12-04T12:21:24;3.10;1.00
21849;DHT22;11089;49.852;19.700;2023-12-04T12:24:25;3.20;1.00
21849;DHT22;11089;49.852;19.700;2023-12-04T12:27:26;3.30;1.00
21849;DHT22;11089;49.852;19.700;2023-12-04T12:30:27;3.30;1.00
21849;DHT22;11089;49.852;19.700;2023-12-04T12:33:28;3.40;1.00
21849;DHT22;11089;49.852;19.700;2023-12-04T12:36:29;3.20;1.00
21849;DHT22;11089;49.852;19.700;2023-12-04T12:39:33;3.60;1.00
21849;DHT22;11089;49.852;19.700;2023-12-04T12:42:34;3.70;1.00
21849;DHT22;11089;49.852;19.700;2023-12-04T12:45:44;3.80;1.00
21849;DHT22;11089;49.852;19.700;2023-12-04T12:48:48;3.60;1.00
21849;DHT22;11089;49.852;19.700;2023-12-04T12:51:49;3.30;1.00
21849;DHT22;11089;49.852;19.700;2023-12-04T12:54:49;3.50;1.00
21849;DHT22;11089;49.852;19.700;2023-12-04T12:57:54;3.10;1.00
21849;DHT22;11089;49.852;19.700;2023-12-04T13:00:56;2.70;1.00
21849;DHT22;11089;49.852;19.700;2023-12-04T13:03:57;2.60;1.00
21849;DHT22;11089;49.852;19.700;2023-12-04T13:06:58;3.00;1.00
21849;DHT22;11089;49.852;19.700;2023-12-04T13:09:59;2.80;1.00
21849;DHT22;11089;49.852;19.700;2023-12-04T13:13:00;2.60;1.00
21849;DHT22;11089;49.852;19.700;2023-12-04T13:16:01;2.40;1.00
21849;DHT22;11089;49.852;19.700;2023-12-04T13:19:02;2.10;1.00
21849;DHT22;11089;49.852;19.700;2023-12-04T13:22:03;2.10;1.00
21849;DHT22;11089;49.852;19.700;2023-12-04T13:25:05;2.00;1.00
21849;DHT22;11089;49.852;19.700;2023-12-04T13:28:07;1.80;1.00
21849;DHT22;11089;49.852;19.700;2023-12-04T13:31:08;1.80;1.00
21849;DHT22;11089;49.852;19.700;2023-12-04T13:34:09;1.70;1.00
21849;DHT22;11089;49.852;19.700;2023-12-04T13:37:12;1.70;1.00
21849;DHT22;11089;49.852;19.700;2023-12-04T13:40:13;1.40;1.00
21849;DHT22;11089;49.852;19.700;2023-12-04T13:43:16;1.40;1.00
21849;DHT22;11089;49.852;19.700;2023-12-04T13:46:36;1.20;1.00
21849;DHT22;11089;49.852;19.700;2023-12-04T13:49:36;0.90;1.00
21849;DHT22;11089;49.852;19.700;2023-12-04T13:52:37;0.80;1.00
21849;DHT22;11089;49.852;19.700;2023-12-04T13:55:39;0.80;1.00
21849;DHT22;11089;49.852;19.700;2023-12-04T13:59:00;0.60;1.00
21849;DHT22;11089;49.852;19.700;2023-12-04T14:02:04;0.40;1.00
21849;DHT22;11089;49.852;19.700;2023-12-04T14:05:10;0.40;1.00
21849;DHT22;11089;49.852;19.700;2023-12-04T14:08:16;0.40;1.00
21849;DHT22;11089;49.852;19.700;2023-12-04T14:11:17;0.20;1.00
21849;DHT22;11089;49.852;19.700;2023-12-04T14:14:18;0.10;1.00
21849;DHT22;11089;49.852;19.700;2023-12-04T14:17:18;0.10;1.00
21849;DHT22;11089;49.852;19.700;2023-12-04T14:20:19;-0.10;1.00
21849;DHT22;11089;49.852;19.700;2023-12-04T14:23:23;0.00;1.00
21849;DHT22;11089;49.852;19.700;2023-12-04T14:26:23;-0.20;1.00
21849;DHT22;11089;49.852;19.700;2023-12-04T14:29:25;-0.30;1.00
21849;DHT22;11089;49.852;19.700;2023-12-04T14:32:26;-0.50;1.00
21849;DHT22;11089;49.852;19.700;2023-12-04T14:35:27;-0.70;1.00
21849;DHT22;11089;49.852;19.700;2023-12-04T14:38:28;-0.70;1.00
21849;DHT22;11089;49.852;19.700;2023-12-04T14:41:30;-0.80;1.00
21849;DHT22;11089;49.852;19.700;2023-12-04T14:44:31;-1.00;99.90
21849;DHT22;11089;49.852;19.700;2023-12-04T14:47:33;-1.10;99.90
21849;DHT22;11089;49.852;19.700;2023-12-04T14:50:34;-1.10;99.90
21849;DHT22;11089;49.852;19.700;2023-12-04T14:53:40;-1.30;99.90
21849;DHT22;11089;49.852;19.700;2023-12-04T14:56:48;-1.30;99.90
21849;DHT22;11089;49.852;19.700;2023-12-04T15:00:21;-1.50;99.90
21849;DHT22;11089;49.852;19.700;2023-12-04T15:03:40;-1.50;99.90
21849;DHT22;11089;49.852;19.700;2023-12-04T15:06:59;-1.40;99.90
21849;DHT22;11089;49.852;19.700;2023-12-04T15:10:19;-1.50;99.90
21849;DHT22;11089;49.852;19.700;2023-12-04T15:13:22;-1.70;99.90
21849;DHT22;11089;49.852;19.700;2023-12-04T15:16:42;-1.80;99.90
21849;DHT22;11089;49.852;19.700;2023-12-04T15:19:50;-1.80;99.90
21849;DHT22;11089;49.852;19.700;2023-12-04T15:23:09;-1.90;1.00
21849;DHT22;11089;49.852;19.700;2023-12-04T15:26:10;-2.00;99.90
21849;DHT22;11089;49.852;19.700;2023-12-04T15:29:14;-2.00;99.90
21849;DHT22;11089;49.852;19.700;2023-12-04T15:32:18;-1.90;99.90
21849;DHT22;11089;49.852;19.700;2023-12-04T15:35:19;-2.00;99.90
21849;DHT22;11089;49.852;19.700;2023-12-04T15:38:20;-2.10;99.90
21849;DHT22;11089;49.852;19.700;2023-12-04T15:41:21;-2.20;1.00
21849;DHT22;11089;49.852;19.700;2023-12-04T15:44:22;-2.10;99.90
21849;DHT22;11089;49.852;19.700;2023-12-04T15:47:23;-2.30;99.90
21849;DHT22;11089;49.852;19.700;2023-12-04T15:50:26;-2.50;99.90
21849;DHT22;11089;49.852;19.700;2023-12-04T15:53:26;-2.60;99.90
21849;DHT22;11089;49.852;19.700;2023-12-04T15:56:27;-2.60;1.00
21849;DHT22;11089;49.852;19.700;2023-12-04T15:59:28;-2.60;1.00
21849;DHT22;11089;49.852;19.700;2023-12-04T16:02:29;-2.70;1.00
21849;DHT22;11089;49.852;19.700;2023-12-04T16:05:31;-2.70;1.00
21849;DHT22;11089;49.852;19.700;2023-12-04T16:08:32;-2.70;1.00
21849;DHT22;11089;49.852;19.700;2023-12-04T16:11:33;-2.70;1.00
21849;DHT22;11089;49.852;19.700;2023-12-04T16:14:34;-2.80;1.00
21849;DHT22;11089;49.852;19.700;2023-12-04T16:17:36;-2.70;1.00
21849;DHT22;11089;49.852;19.700;2023-12-04T16:20:37;-2.80;1.00
21849;DHT22;11089;49.852;19.700;2023-12-04T16:23:37;-2.70;1.00
21849;DHT22;11089;49.852;19.700;2023-12-04T16:26:39;-2.80;1.00
21849;DHT22;11089;49.852;19.700;2023-12-04T16:29:41;-2.80;1.00
21849;DHT22;11089;49.852;19.700;2023-12-04T16:32:43;-2.70;1.00
21849;DHT22;11089;49.852;19.700;2023-12-04T16:35:44;-2.80;1.00
21849;DHT22;11089;49.852;19.700;2023-12-04T16:38:44;-2.80;1.00
21849;DHT22;11089;49.852;19.700;2023-12-04T16:41:46;-2.80;1.00
21849;DHT22;11089;49.852;19.700;2023-12-04T16:44:47;-2.80;1.00
21849;DHT22;11089;49.852;19.700;2023-12-04T16:47:48;-2.70;1.00
21849;DHT22;11089;49.852;19.700;2023-12-04T16:50:50;-2.70;1.00
21849;DHT22;11089;49.852;19.700;2023-12-04T16:53:50;-2.70;1.00
21849;DHT22;11089;49.852;19.700;2023-12-04T16:56:51;-2.80;1.00
21849;DHT22;11089;49.852;19.700;2023-12-04T16:59:52;-2.80;1.00
21849;DHT22;11089;49.852;19.700;2023-12-04T17:02:53;-2.70;1.00
21849;DHT22;11089;49.852;19.700;2023-12-04T17:05:54;-2.70;1.00
21849;DHT22;11089;49.852;19.700;2023-12-04T17:08:55;-2.90;1.00
21849;DHT22;11089;49.852;19.700;2023-12-04T17:11:56;-2.90;1.00
21849;DHT22;11089;49.852;19.700;2023-12-04T17:14:57;-2.90;1.00
21849;DHT22;11089;49.852;19.700;2023-12-04T17:17:58;-2.90;1.00
21849;DHT22;11089;49.852;19.700;2023-12-04T17:21:00;-2.90;48.60
21849;DHT22;11089;49.852;19.700;2023-12-04T17:24:00;-2.90;1.00
21849;DHT22;11089;49.852;19.700;2023-12-04T17:27:01;-2.90;1.00
21849;DHT22;11089;49.852;19.700;2023-12-04T17:30:02;-2.90;1.00
21849;DHT22;11089;49.852;19.700;2023-12-04T17:33:04;-2.90;85.40
21849;DHT22;11089;49.852;19.700;2023-12-04T17:36:05;-2.90;18.90
21849;DHT22;11089;49.852;19.700;2023-12-04T17:39:06;-2.90;64.80
21849;DHT22;11089;49.852;19.700;2023-12-04T17:42:08;-2.80;1.00
21849;DHT22;11089;49.852;19.700;2023-12-04T17:45:09;-2.80;99.90
21849;DHT22;11089;49.852;19.700;2023-12-04T17:48:10;-2.90;99.90
21849;DHT22;11089;49.852;19.700;2023-12-04T17:51:19;-3.00;1.00
21849;DHT22;11089;49.852;19.700;2023-12-04T17:54:20;-3.10;99.90
21849;DHT22;11089;49.852;19.700;2023-12-04T17:57:21;-3.00;99.90
21849;DHT22;11089;49.852;19.700;2023-12-04T18:00:22;-3.10;99.90
21849;DHT22;11089;49.852;19.700;2023-12-04T18:03:22;-3.00;1.00
21849;DHT22;11089;49.852;19.700;2023-12-04T18:06:27;-2.90;1.00
21849;DHT22;11089;49.852;19.700;2023-12-04T18:09:29;-2.80;99.90
21849;DHT22;11089;49.852;19.700;2023-12-04T18:12:30;-2.80;99.90
21849;DHT22;11089;49.852;19.700;2023-12-04T18:15:30;-2.90;99.90
21849;DHT22;11089;49.852;19.700;2023-12-04T18:18:31;-3.20;1.00
21849;DHT22;11089;49.852;19.700;2023-12-04T18:21:32;-3.30;1.00
21849;DHT22;11089;49.852;19.700;2023-12-04T18:24:33;-3.50;1.00
21849;DHT22;11089;49.852;19.700;2023-12-04T18:27:34;-3.50;1.00
21849;DHT22;11089;49.852;19.700;2023-12-04T18:30:36;-3.50;1.00
21849;DHT22;11089;49.852;19.700;2023-12-04T18:33:37;-3.50;1.00
21849;DHT22;11089;49.852;19.700;2023-12-04T18:36:42;-3.50;1.00
21849;DHT22;11089;49.852;19.700;2023-12-04T18:39:46;-3.50;1.00
21849;DHT22;11089;49.852;19.700;2023-12-04T18:42:47;-3.50;1.00
21849;DHT22;11089;49.852;19.700;2023-12-04T18:45:49;-3.50;6.40
21849;DHT22;11089;49.852;19.700;2023-12-04T18:48:50;-3.60;93.90
21849;DHT22;11089;49.852;19.700;2023-12-04T18:51:51;-3.60;99.90
21849;DHT22;11089;49.852;19.700;2023-12-04T18:54:52;-3.50;99.90
21849;DHT22;11089;49.852;19.700;2023-12-04T18:57:53;-3.40;99.90
21849;DHT22;11089;49.852;19.700;2023-12-04T19:00:54;-3.30;99.90
21849;DHT22;11089;49.852;19.700;2023-12-04T19:03:55;-3.60;1.00
21849;DHT22;11089;49.852;19.700;2023-12-04T19:06:56;-3.60;72.60
21849;DHT22;11089;49.852;19.700;2023-12-04T19:09:57;-3.60;99.90
21849;DHT22;11089;49.852;19.700;2023-12-04T19:12:58;-3.50;6.80